createdAt,value
2019-04-10T00:00:11.277Z,98273.05
2019-04-10T00:01:21.097Z,98273.05
2019-04-10T00:02:31.317Z,98271.37
2019-04-10T00:03:42.011Z,98273.69
2019-04-10T00:04:49.495Z,98272.36
2019-04-10T00:06:00.474Z,98272.27
2019-04-10T00:07:14.926Z,98271.84
2019-04-10T00:08:18.617Z,98274.09
2019-04-10T00:09:27.755Z,98269.81
2019-04-10T00:10:36.359Z,98270.84
2019-04-10T00:11:45.126Z,98271.70
2019-04-10T00:12:54.103Z,98275.98
2019-04-10T00:14:02.973Z,98281.94
2019-04-10T00:15:11.379Z,98271.55
2019-04-10T00:16:20.874Z,98280.16
2019-04-10T00:17:29.198Z,98276.42
2019-04-10T00:18:37.990Z,98275.59
2019-04-10T00:19:46.181Z,98277.55
2019-04-10T00:20:54.365Z,98272.63
2019-04-10T00:22:02.891Z,98274.88
2019-04-10T00:23:11.379Z,98278.62
2019-04-10T00:24:20.593Z,98276.11
2019-04-10T00:25:28.701Z,98263.45
2019-04-10T00:26:37.500Z,98273.00
2019-04-10T00:27:45.607Z,98269.79
2019-04-10T00:28:53.968Z,98275.24
2019-04-10T00:30:02.937Z,98274.66
2019-04-10T00:31:15.779Z,98274.45
2019-04-10T00:32:24.016Z,98273.95
2019-04-10T00:33:32.621Z,98277.48
2019-04-10T00:34:42.014Z,98277.98
2019-04-10T00:35:50.247Z,98274.62
2019-04-10T00:36:58.327Z,98276.20
2019-04-10T00:38:06.982Z,98272.50
2019-04-10T00:39:15.213Z,98286.16
2019-04-10T00:40:23.559Z,98282.59
2019-04-10T00:41:32.308Z,98286.58
2019-04-10T00:42:41.151Z,98284.06
2019-04-10T00:43:49.488Z,98286.34
2019-04-10T00:44:57.222Z,98284.09
2019-04-10T00:46:06.189Z,98281.34
2019-04-10T00:47:14.894Z,98281.61
2019-04-10T00:48:23.939Z,98281.99
2019-04-10T00:49:31.984Z,98285.77
2019-04-10T00:50:40.251Z,98283.59
2019-04-10T00:51:48.126Z,98284.33
2019-04-10T00:52:56.734Z,98289.07
2019-04-10T00:54:05.666Z,98282.47
2019-04-10T00:55:15.150Z,98287.06
2019-04-10T00:56:24.258Z,98283.47
2019-04-10T00:57:33.759Z,98291.20
2019-04-10T00:58:41.864Z,98282.41
2019-04-10T00:59:50.506Z,98295.92
2019-04-10T01:01:00.350Z,98290.75
2019-04-10T01:02:08.342Z,98291.13
2019-04-10T01:03:17.879Z,98283.22
2019-04-10T01:04:26.593Z,98283.59
2019-04-10T01:05:35.349Z,98287.59
2019-04-10T01:06:44.207Z,98283.03
2019-04-10T01:07:52.237Z,98281.46
2019-04-10T01:09:01.140Z,98283.77
2019-04-10T01:10:10.206Z,98283.27
2019-04-10T01:11:18.985Z,98283.17
2019-04-10T01:12:27.976Z,98286.19
2019-04-10T01:13:36.910Z,98282.35
2019-04-10T01:14:45.695Z,98284.16
2019-04-10T01:15:53.856Z,98280.53
2019-04-10T01:17:02.213Z,98286.56
2019-04-10T01:18:10.937Z,98287.41
2019-04-10T01:19:19.617Z,98281.52
2019-04-10T01:20:27.948Z,98286.93
2019-04-10T01:21:36.792Z,98288.75
2019-04-10T01:22:45.557Z,98287.52
2019-04-10T01:24:05.756Z,98288.00
2019-04-10T01:25:14.433Z,98281.64
2019-04-10T01:26:23.289Z,98281.29
2019-04-10T01:27:32.004Z,98283.80
2019-04-10T01:28:42.057Z,98281.16
2019-04-10T01:29:50.237Z,98275.15
2019-04-10T01:30:59.100Z,98282.84
2019-04-10T01:32:07.814Z,98282.41
2019-04-10T01:33:16.544Z,98290.11
2019-04-10T01:34:25.404Z,98288.42
2019-04-10T01:35:34.242Z,98290.86
2019-04-10T01:36:43.802Z,98284.95
2019-04-10T01:37:57.696Z,98281.10
2019-04-10T01:39:02.125Z,98273.16
2019-04-10T01:40:10.804Z,98282.78
2019-04-10T01:41:19.447Z,98285.70
2019-04-10T01:42:28.395Z,98284.86
2019-04-10T01:43:37.143Z,98275.22
2019-04-10T01:44:45.454Z,98281.85
2019-04-10T01:45:53.683Z,98283.27
2019-04-10T01:47:02.557Z,98283.41
2019-04-10T01:48:11.838Z,98277.75
2019-04-10T01:49:20.483Z,98275.81
2019-04-10T01:50:28.616Z,98282.93
2019-04-10T01:51:36.749Z,98279.70
2019-04-10T01:52:44.986Z,98276.21
2019-04-10T01:53:52.909Z,98285.27
2019-04-10T01:55:03.181Z,98283.20
2019-04-10T01:56:22.932Z,98285.84
2019-04-10T01:57:20.424Z,98282.48
2019-04-10T01:58:29.412Z,98282.75
2019-04-10T01:59:38.995Z,98286.82
2019-04-10T02:01:03.886Z,98279.00
2019-04-10T02:02:14.772Z,98282.75
2019-04-10T02:03:22.824Z,98278.03
2019-04-10T02:04:31.049Z,98282.39
2019-04-10T02:05:39.447Z,98287.69
2019-04-10T02:06:47.862Z,98285.05
2019-04-10T02:08:05.221Z,98284.34
2019-04-10T02:09:10.826Z,98284.92
2019-04-10T02:10:20.423Z,98283.85
2019-04-10T02:11:29.895Z,98290.34
2019-04-10T02:12:38.845Z,98288.53
2019-04-10T02:13:47.666Z,98286.14
2019-04-10T02:14:56.560Z,98283.50
2019-04-10T02:16:04.606Z,98282.53
2019-04-10T02:17:12.631Z,98287.56
2019-04-10T02:18:21.383Z,98284.43
2019-04-10T02:19:30.208Z,98283.59
2019-04-10T02:20:38.879Z,98282.88
2019-04-10T02:21:47.714Z,98283.98
2019-04-10T02:22:56.268Z,98285.05
2019-04-10T02:24:05.080Z,98277.58
2019-04-10T02:25:13.886Z,98279.88
2019-04-10T02:26:22.358Z,98276.88
2019-04-10T02:27:30.480Z,98280.00
2019-04-10T02:28:39.443Z,98280.48
2019-04-10T02:29:48.119Z,98281.10
2019-04-10T02:30:56.810Z,98278.55
2019-04-10T02:32:05.762Z,98280.84
2019-04-10T02:33:14.009Z,98280.48
2019-04-10T02:34:23.230Z,98274.70
2019-04-10T02:35:31.665Z,98274.48
2019-04-10T02:36:39.937Z,98274.34
2019-04-10T02:37:52.698Z,98277.84
2019-04-10T02:39:08.519Z,98277.97
2019-04-10T02:40:10.958Z,98269.67
2019-04-10T02:41:19.347Z,98275.45
2019-04-10T02:42:27.418Z,98274.61
2019-04-10T02:43:36.011Z,98279.52
2019-04-10T02:44:45.742Z,98276.51
2019-04-10T02:45:55.554Z,98275.55
2019-04-10T02:47:04.544Z,98280.36
2019-04-10T02:48:13.080Z,98281.23
2019-04-10T02:49:22.442Z,98282.64
2019-04-10T02:50:31.248Z,98276.77
2019-04-10T02:51:41.094Z,98279.64
2019-04-10T02:52:50.871Z,98280.25
2019-04-10T02:54:00.315Z,98283.97
2019-04-10T02:55:09.875Z,98277.25
2019-04-10T02:56:20.736Z,98283.39
2019-04-10T02:57:29.490Z,98284.94
2019-04-10T02:58:38.551Z,98280.87
2019-04-10T02:59:47.321Z,98287.09
2019-04-10T03:00:56.324Z,98288.06
2019-04-10T03:02:06.216Z,98283.38
2019-04-10T03:03:15.827Z,98279.05
2019-04-10T03:04:24.433Z,98290.00
2019-04-10T03:05:34.416Z,98284.96
2019-04-10T03:06:43.040Z,98283.25
2019-04-10T03:07:52.474Z,98284.47
2019-04-10T03:09:14.811Z,98296.73
2019-04-10T03:10:21.705Z,98298.91
2019-04-10T03:11:22.247Z,98297.46
2019-04-10T03:12:32.172Z,98298.78
2019-04-10T03:13:40.939Z,98296.02
2019-04-10T03:14:49.832Z,98302.27
2019-04-10T03:15:59.944Z,98297.69
2019-04-10T03:17:08.315Z,98303.47
2019-04-10T03:18:16.866Z,98305.51
2019-04-10T03:19:25.543Z,98306.83
2019-04-10T03:20:34.249Z,98307.22
2019-04-10T03:21:43.009Z,98310.70
2019-04-10T03:22:51.546Z,98306.25
2019-04-10T03:24:00.110Z,98314.20
2019-04-10T03:25:08.964Z,98313.36
2019-04-10T03:26:17.350Z,98306.25
2019-04-10T03:27:26.058Z,98312.62
2019-04-10T03:28:35.427Z,98314.66
2019-04-10T03:29:44.984Z,98315.02
2019-04-10T03:30:54.331Z,98316.13
2019-04-10T03:32:07.827Z,98316.48
2019-04-10T03:33:19.826Z,98311.05
2019-04-10T03:34:30.384Z,98312.86
2019-04-10T03:35:38.782Z,98311.54
2019-04-10T03:36:47.579Z,98307.47
2019-04-10T03:37:55.940Z,98316.73
2019-04-10T03:39:07.475Z,98317.31
2019-04-10T03:40:15.357Z,98316.95
2019-04-10T03:41:24.114Z,98315.16
2019-04-10T03:42:32.841Z,98311.77
2019-04-10T03:43:41.685Z,98319.35
2019-04-10T03:44:49.895Z,98318.03
2019-04-10T03:45:59.154Z,98319.84
2019-04-10T03:47:07.611Z,98322.25
2019-04-10T03:48:15.985Z,98317.92
2019-04-10T03:49:23.978Z,98319.13
2019-04-10T03:50:32.287Z,98318.16
2019-04-10T03:51:40.848Z,98321.64
2019-04-10T03:52:49.631Z,98315.86
2019-04-10T03:53:58.439Z,98313.83
2019-04-10T03:55:10.505Z,98316.59
2019-04-10T03:56:18.567Z,98318.75
2019-04-10T03:57:26.829Z,98323.69
2019-04-10T03:58:35.649Z,98321.61
2019-04-10T03:59:43.713Z,98321.86
2019-04-10T04:00:52.234Z,98323.31
2019-04-10T04:02:01.097Z,98320.30
2019-04-10T04:03:10.652Z,98325.12
2019-04-10T04:04:19.633Z,98326.44
2019-04-10T04:05:28.734Z,98332.80
2019-04-10T04:06:37.244Z,98338.45
2019-04-10T04:07:46.494Z,98336.91
2019-04-10T04:09:04.293Z,98338.44
2019-04-10T04:10:06.526Z,98336.40
2019-04-10T04:11:15.596Z,98340.97
2019-04-10T04:12:23.688Z,98348.44
2019-04-10T04:13:32.029Z,98344.95
2019-04-10T04:14:40.847Z,98343.48
2019-04-10T04:15:49.209Z,98347.93
2019-04-10T04:16:57.795Z,98342.99
2019-04-10T04:18:05.961Z,98343.96
2019-04-10T04:19:14.403Z,98349.50
2019-04-10T04:20:23.179Z,98348.51
2019-04-10T04:21:32.043Z,98344.30
2019-04-10T04:22:41.097Z,98348.39
2019-04-10T04:23:49.374Z,98351.88
2019-04-10T04:24:58.213Z,98348.48
2019-04-10T04:26:07.223Z,98354.02
2019-04-10T04:27:15.482Z,98352.22
2019-04-10T04:28:23.700Z,98359.08
2019-04-10T04:29:32.472Z,98357.48
2019-04-10T04:30:41.984Z,98360.88
2019-04-10T04:31:50.700Z,98361.72
2019-04-10T04:32:58.822Z,98358.47
2019-04-10T04:34:06.931Z,98360.16
2019-04-10T04:35:34.677Z,98365.23
2019-04-10T04:36:43.292Z,98360.39
2019-04-10T04:37:52.580Z,98363.16
2019-04-10T04:39:12.762Z,98364.24
2019-04-10T04:40:11.197Z,98364.84
2019-04-10T04:41:19.930Z,98366.86
2019-04-10T04:42:28.704Z,98360.97
2019-04-10T04:43:37.114Z,98371.94
2019-04-10T04:44:45.499Z,98374.95
2019-04-10T04:45:53.520Z,98370.62
2019-04-10T04:47:01.381Z,98371.06
2019-04-10T04:48:09.893Z,98368.54
2019-04-10T04:49:18.188Z,98372.99
2019-04-10T04:50:27.072Z,98378.07
2019-04-10T04:51:35.357Z,98374.34
2019-04-10T04:52:43.869Z,98372.54
2019-04-10T04:53:52.426Z,98374.22
2019-04-10T04:55:02.008Z,98378.91
2019-04-10T04:56:10.091Z,98377.50
2019-04-10T04:57:18.407Z,98379.42
2019-04-10T04:58:27.095Z,98372.92
2019-04-10T04:59:36.560Z,98374.48
2019-04-10T05:00:45.936Z,98377.98
2019-04-10T05:01:55.003Z,98377.13
2019-04-10T05:03:04.010Z,98380.38
2019-04-10T05:04:11.835Z,98376.05
2019-04-10T05:05:19.981Z,98377.25
2019-04-10T05:06:28.183Z,98377.25
2019-04-10T05:07:37.398Z,98377.61
2019-04-10T05:08:46.294Z,98375.72
2019-04-10T05:09:54.479Z,98378.48
2019-04-10T05:11:04.238Z,98381.76
2019-04-10T05:12:13.397Z,98383.19
2019-04-10T05:13:22.227Z,98383.34
2019-04-10T05:14:31.426Z,98384.42
2019-04-10T05:15:40.727Z,98386.94
2019-04-10T05:16:49.973Z,98389.11
2019-04-10T05:17:58.367Z,98391.64
2019-04-10T05:19:06.780Z,98388.27
2019-04-10T05:20:15.044Z,98391.49
2019-04-10T05:21:23.409Z,98389.69
2019-04-10T05:22:31.810Z,98393.42
2019-04-10T05:23:40.644Z,98393.42
2019-04-10T05:24:48.916Z,98393.90
2019-04-10T05:25:59.024Z,98388.73
2019-04-10T05:27:07.815Z,98381.27
2019-04-10T05:28:15.905Z,98384.48
2019-04-10T05:29:25.001Z,98389.30
2019-04-10T05:30:33.529Z,98387.98
2019-04-10T05:31:42.663Z,98391.38
2019-04-10T05:32:51.444Z,98395.70
2019-04-10T05:33:59.445Z,98393.54
2019-04-10T05:35:10.056Z,98397.99
2019-04-10T05:36:18.156Z,98396.42
2019-04-10T05:37:27.473Z,98392.81
2019-04-10T05:38:35.803Z,98397.41
2019-04-10T05:39:50.119Z,98398.85
2019-04-10T05:40:53.531Z,98392.36
2019-04-10T05:42:02.746Z,98381.16
2019-04-10T05:43:11.506Z,98384.08
2019-04-10T05:44:20.183Z,98389.73
2019-04-10T05:45:28.263Z,98390.70
2019-04-10T05:46:36.832Z,98394.06
2019-04-10T05:47:44.957Z,98392.73
2019-04-10T05:48:53.057Z,98395.74
2019-04-10T05:50:02.055Z,98386.48
2019-04-10T05:51:10.530Z,98387.80
2019-04-10T05:52:18.606Z,98387.20
2019-04-10T05:53:26.672Z,98388.91
2019-04-10T05:54:35.361Z,98387.47
2019-04-10T05:55:43.577Z,98388.66
2019-04-10T05:56:52.579Z,98393.48
2019-04-10T05:58:01.663Z,98398.16
2019-04-10T05:59:10.885Z,98402.14
2019-04-10T06:00:21.364Z,98400.09
2019-04-10T06:01:35.074Z,98396.10
2019-04-10T06:02:39.854Z,98392.73
2019-04-10T06:03:49.148Z,98389.73
2019-04-10T06:04:57.936Z,98395.51
2019-04-10T06:06:06.523Z,98394.66
2019-04-10T06:07:14.944Z,98394.79
2019-04-10T06:08:23.849Z,98402.34
2019-04-10T06:09:33.050Z,98395.97
2019-04-10T06:10:41.613Z,98397.05
2019-04-10T06:11:50.062Z,98405.92
2019-04-10T06:12:58.505Z,98400.16
2019-04-10T06:14:08.121Z,98403.04
2019-04-10T06:15:16.943Z,98406.53
2019-04-10T06:16:26.157Z,98395.34
2019-04-10T06:17:34.367Z,98395.70
2019-04-10T06:18:43.052Z,98401.72
2019-04-10T06:19:51.224Z,98410.02
2019-04-10T06:21:00.774Z,98394.89
2019-04-10T06:22:11.216Z,98406.20
2019-04-10T06:23:19.845Z,98400.42
2019-04-10T06:24:28.059Z,98398.49
2019-04-10T06:25:38.869Z,98399.33
2019-04-10T06:26:46.092Z,98404.14
2019-04-10T06:27:54.461Z,98403.30
2019-04-10T06:29:04.405Z,98399.69
2019-04-10T06:30:13.372Z,98403.57
2019-04-10T06:31:22.658Z,98403.81
2019-04-10T06:32:31.706Z,98410.30
2019-04-10T06:33:40.321Z,98402.23
2019-04-10T06:34:48.469Z,98408.26
2019-04-10T06:35:57.430Z,98407.91
2019-04-10T06:37:06.184Z,98410.78
2019-04-10T06:38:14.786Z,98412.47
2019-04-10T06:39:23.214Z,98408.14
2019-04-10T06:40:31.098Z,98408.26
2019-04-10T06:41:39.234Z,98406.22
2019-04-10T06:42:50.794Z,98404.98
2019-04-10T06:43:57.274Z,98403.91
2019-04-10T06:45:07.396Z,98408.59
2019-04-10T06:46:16.736Z,98409.92
2019-04-10T06:47:25.110Z,98407.16
2019-04-10T06:48:34.110Z,98407.03
2019-04-10T06:49:42.546Z,98401.02
2019-04-10T06:50:50.891Z,98406.09
2019-04-10T06:51:59.736Z,98401.88
2019-04-10T06:53:08.493Z,98408.87
2019-04-10T06:54:16.769Z,98408.54
2019-04-10T06:55:24.887Z,98413.25
2019-04-10T06:56:33.381Z,98409.51
2019-04-10T06:57:51.220Z,98412.64
2019-04-10T06:58:52.007Z,98407.97
2019-04-10T07:00:00.807Z,98406.40
2019-04-10T07:01:09.058Z,98407.95
2019-04-10T07:02:24.639Z,98409.06
2019-04-10T07:03:43.698Z,98410.13
2019-04-10T07:04:46.079Z,98413.53
2019-04-10T07:06:01.327Z,98410.27
2019-04-10T07:07:03.046Z,98410.14
2019-04-10T07:08:14.647Z,98413.16
2019-04-10T07:09:26.387Z,98408.47
2019-04-10T07:10:45.363Z,98413.16
2019-04-10T07:11:43.094Z,98416.52
2019-04-10T07:12:51.501Z,98416.91
2019-04-10T07:13:59.922Z,98417.50
2019-04-10T07:15:10.513Z,98417.16
2019-04-10T07:16:20.015Z,98412.80
2019-04-10T07:17:29.232Z,98418.00
2019-04-10T07:18:38.332Z,98414.03
2019-04-10T07:19:46.933Z,98414.75
2019-04-10T07:20:58.347Z,98420.76
2019-04-10T07:22:12.002Z,98414.84
2019-04-10T07:23:19.234Z,98414.98
2019-04-10T07:24:25.036Z,98416.66
2019-04-10T07:25:33.073Z,98417.99
2019-04-10T07:26:44.853Z,98419.67
2019-04-10T07:27:52.106Z,98410.05
2019-04-10T07:29:00.638Z,98414.38
2019-04-10T07:30:10.052Z,98417.38
2019-04-10T07:31:19.374Z,98412.47
2019-04-10T07:32:27.863Z,98422.58
2019-04-10T07:33:36.976Z,98420.16
2019-04-10T07:34:45.227Z,98424.50
2019-04-10T07:35:55.183Z,98423.05
2019-04-10T07:37:03.047Z,98424.50
2019-04-10T07:38:11.819Z,98420.88
2019-04-10T07:39:19.740Z,98431.35
2019-04-10T07:40:28.310Z,98413.41
2019-04-10T07:41:37.754Z,98428.60
2019-04-10T07:42:46.329Z,98415.58
2019-04-10T07:43:55.827Z,98422.69
2019-04-10T07:45:05.533Z,98430.16
2019-04-10T07:46:13.617Z,98422.44
2019-04-10T07:47:22.143Z,98428.09
2019-04-10T07:48:30.139Z,98430.74
2019-04-10T07:49:39.577Z,98428.84
2019-04-10T07:50:48.564Z,98425.70
2019-04-10T07:51:56.614Z,98438.58
2019-04-10T07:53:04.543Z,98431.72
2019-04-10T07:54:17.895Z,98441.00
2019-04-10T07:55:23.844Z,98436.05
2019-04-10T07:56:33.290Z,98431.46
2019-04-10T07:57:44.708Z,98427.27
2019-04-10T07:58:51.773Z,98430.01
2019-04-10T08:00:00.614Z,98426.16
2019-04-10T08:01:09.861Z,98430.63
2019-04-10T08:02:18.060Z,98432.92
2019-04-10T08:03:26.003Z,98436.28
2019-04-10T08:04:35.231Z,98434.86
2019-04-10T08:05:46.035Z,98441.94
2019-04-10T08:06:54.394Z,98447.14
2019-04-10T08:08:03.019Z,98438.22
2019-04-10T08:09:12.446Z,98437.11
2019-04-10T08:10:20.695Z,98441.70
2019-04-10T08:11:29.624Z,98433.61
2019-04-10T08:12:45.956Z,98429.23
2019-04-10T08:13:47.426Z,98436.13
2019-04-10T08:14:56.162Z,98442.50
2019-04-10T08:16:04.339Z,98435.50
2019-04-10T08:17:12.471Z,98436.21
2019-04-10T08:18:21.126Z,98435.11
2019-04-10T08:19:29.543Z,98431.02
2019-04-10T08:20:38.190Z,98436.55
2019-04-10T08:21:46.467Z,98440.53
2019-04-10T08:22:55.320Z,98439.91
2019-04-10T08:24:03.414Z,98446.06
2019-04-10T08:25:12.081Z,98443.17
2019-04-10T08:26:21.293Z,98442.33
2019-04-10T08:27:29.983Z,98446.45
2019-04-10T08:28:37.804Z,98443.89
2019-04-10T08:29:46.225Z,98438.72
2019-04-10T08:30:54.694Z,98449.56
2019-04-10T08:32:02.812Z,98440.05
2019-04-10T08:33:11.889Z,98441.24
2019-04-10T08:34:20.095Z,98441.38
2019-04-10T08:35:29.357Z,98445.22
2019-04-10T08:36:37.460Z,98433.41
2019-04-10T08:37:45.767Z,98442.08
2019-04-10T08:38:54.926Z,98430.53
2019-04-10T08:40:03.191Z,98434.02
2019-04-10T08:41:12.847Z,98425.92
2019-04-10T08:42:20.895Z,98429.64
2019-04-10T08:43:29.586Z,98425.08
2019-04-10T08:44:38.550Z,98428.09
2019-04-10T08:45:51.203Z,98438.09
2019-04-10T08:46:56.357Z,98430.13
2019-04-10T08:48:05.663Z,98433.00
2019-04-10T08:49:16.299Z,98432.07
2019-04-10T08:50:24.543Z,98432.30
2019-04-10T08:51:33.193Z,98435.44
2019-04-10T08:52:41.325Z,98438.80
2019-04-10T08:53:49.385Z,98431.92
2019-04-10T08:54:57.730Z,98428.41
2019-04-10T08:56:06.585Z,98427.88
2019-04-10T08:57:14.771Z,98419.41
2019-04-10T08:58:23.134Z,98421.42
2019-04-10T08:59:31.919Z,98421.26
2019-04-10T09:00:40.714Z,98426.55
2019-04-10T09:01:49.957Z,98426.88
2019-04-10T09:02:58.181Z,98428.06
2019-04-10T09:04:06.427Z,98416.47
2019-04-10T09:05:14.856Z,98423.95
2019-04-10T09:06:23.119Z,98424.22
2019-04-10T09:07:32.543Z,98417.58
2019-04-10T09:08:41.982Z,98417.44
2019-04-10T09:09:50.423Z,98424.44
2019-04-10T09:10:58.790Z,98415.59
2019-04-10T09:12:07.372Z,98415.25
2019-04-10T09:13:16.723Z,98419.47
2019-04-10T09:14:26.297Z,98411.88
2019-04-10T09:15:36.053Z,98425.88
2019-04-10T09:16:44.813Z,98410.28
2019-04-10T09:17:52.889Z,98417.98
2019-04-10T09:19:01.401Z,98413.75
2019-04-10T09:20:10.869Z,98402.84
2019-04-10T09:21:19.442Z,98407.19
2019-04-10T09:22:27.476Z,98412.50
2019-04-10T09:23:42.556Z,98416.55
2019-04-10T09:24:46.512Z,98412.59
2019-04-10T09:25:55.481Z,98412.73
2019-04-10T09:27:04.673Z,98420.09
2019-04-10T09:28:13.915Z,98417.09
2019-04-10T09:29:24.271Z,98418.77
2019-04-10T09:30:33.837Z,98413.22
2019-04-10T09:31:42.034Z,98415.59
2019-04-10T09:32:50.720Z,98406.79
2019-04-10T09:33:59.227Z,98407.98
2019-04-10T09:35:09.754Z,98409.17
2019-04-10T09:36:18.361Z,98417.14
2019-04-10T09:37:28.211Z,98419.55
2019-04-10T09:38:36.944Z,98411.09
2019-04-10T09:39:45.102Z,98416.65
2019-04-10T09:40:53.337Z,98421.38
2019-04-10T09:42:01.362Z,98410.63
2019-04-10T09:43:09.859Z,98426.22
2019-04-10T09:44:18.662Z,98400.01
2019-04-10T09:45:27.165Z,98405.92
2019-04-10T09:46:35.677Z,98402.42
2019-04-10T09:47:43.940Z,98405.50
2019-04-10T09:48:52.239Z,98401.77
2019-04-10T09:50:00.312Z,98413.09
2019-04-10T09:51:09.617Z,98401.14
2019-04-10T09:52:18.697Z,98410.41
2019-04-10T09:53:26.784Z,98406.94
2019-04-10T09:54:34.889Z,98411.62
2019-04-10T09:55:43.153Z,98402.67
2019-04-10T09:56:51.242Z,98399.42
2019-04-10T09:58:00.142Z,98396.48
2019-04-10T09:59:08.254Z,98399.36
2019-04-10T10:00:17.676Z,98403.13
2019-04-10T10:01:27.570Z,98395.86
2019-04-10T10:02:36.152Z,98385.09
2019-04-10T10:03:44.460Z,98396.31
2019-04-10T10:04:53.603Z,98404.39
2019-04-10T10:06:01.906Z,98401.10
2019-04-10T10:07:10.376Z,98399.00
2019-04-10T10:08:18.467Z,98401.41
2019-04-10T10:09:29.060Z,98409.73
2019-04-10T10:10:37.225Z,98391.97
2019-04-10T10:11:47.006Z,98389.80
2019-04-10T10:12:55.228Z,98398.48
2019-04-10T10:14:04.061Z,98388.96
2019-04-10T10:15:13.423Z,98375.32
2019-04-10T10:16:21.497Z,98383.99
2019-04-10T10:17:30.710Z,98391.48
2019-04-10T10:18:38.739Z,98398.27
2019-04-10T10:19:48.077Z,98401.41
2019-04-10T10:20:56.469Z,98388.72
2019-04-10T10:22:05.105Z,98388.61
2019-04-10T10:23:14.269Z,98375.67
2019-04-10T10:24:22.543Z,98379.66
2019-04-10T10:25:31.251Z,98378.67
2019-04-10T10:26:39.859Z,98376.30
2019-04-10T10:27:48.893Z,98373.54
2019-04-10T10:28:56.857Z,98376.20
2019-04-10T10:30:11.568Z,98377.53
2019-04-10T10:31:20.156Z,98373.68
2019-04-10T10:32:28.914Z,98371.23
2019-04-10T10:33:37.525Z,98370.25
2019-04-10T10:34:45.683Z,98368.92
2019-04-10T10:35:53.655Z,98375.99
2019-04-10T10:37:03.885Z,98366.45
2019-04-10T10:38:12.806Z,98376.34
2019-04-10T10:39:23.013Z,98360.25
2019-04-10T10:40:31.839Z,98375.22
2019-04-10T10:41:40.536Z,98367.11
2019-04-10T10:42:48.790Z,98364.80
2019-04-10T10:43:56.614Z,98365.67
2019-04-10T10:45:10.323Z,98362.03
2019-04-10T10:46:19.698Z,98359.72
2019-04-10T10:47:29.093Z,98353.56
2019-04-10T10:48:37.989Z,98358.74
2019-04-10T10:49:46.615Z,98359.58
2019-04-10T10:50:56.274Z,98369.93
2019-04-10T10:52:04.499Z,98357.75
2019-04-10T10:53:12.545Z,98363.62
2019-04-10T10:54:21.185Z,98361.55
2019-04-10T10:55:30.182Z,98366.58
2019-04-10T10:56:38.273Z,98367.17
2019-04-10T10:57:47.034Z,98368.70
2019-04-10T10:58:57.755Z,98363.48
2019-04-10T11:00:08.343Z,98364.17
2019-04-10T11:01:18.014Z,98370.54
2019-04-10T11:02:27.711Z,98368.72
2019-04-10T11:03:35.983Z,98363.63
2019-04-10T11:04:45.341Z,98355.37
2019-04-10T11:05:53.412Z,98378.22
2019-04-10T11:07:02.545Z,98373.80
2019-04-10T11:08:11.140Z,98362.41
2019-04-10T11:09:19.729Z,98372.27
2019-04-10T11:10:27.796Z,98363.30
2019-04-10T11:11:36.973Z,98372.85
2019-04-10T11:12:46.604Z,98370.69
2019-04-10T11:13:55.136Z,98366.20
2019-04-10T11:15:03.786Z,98365.47
2019-04-10T11:16:13.065Z,98380.11
2019-04-10T11:17:22.244Z,98381.81
2019-04-10T11:18:30.816Z,98384.09
2019-04-10T11:19:39.459Z,98377.94
2019-04-10T11:20:48.346Z,98381.44
2019-04-10T11:21:56.885Z,98386.76
2019-04-10T11:23:06.224Z,98385.37
2019-04-10T11:24:15.027Z,98378.37
2019-04-10T11:25:23.792Z,98382.96
2019-04-10T11:26:32.168Z,98382.85
2019-04-10T11:27:42.069Z,98382.02
2019-04-10T11:28:50.094Z,98386.84
2019-04-10T11:29:59.878Z,98380.80
2019-04-10T11:31:09.563Z,98389.99
2019-04-10T11:32:17.653Z,98385.72
2019-04-10T11:33:26.333Z,98391.59
2019-04-10T11:34:35.611Z,98404.64
2019-04-10T11:35:45.769Z,98387.69
2019-04-10T11:37:13.940Z,98387.05
2019-04-10T11:38:05.731Z,98394.78
2019-04-10T11:39:22.093Z,98379.22
2019-04-10T11:40:23.677Z,98387.78
2019-04-10T11:41:33.909Z,98382.80
2019-04-10T11:42:44.727Z,98387.38
2019-04-10T11:43:55.855Z,98391.92
2019-04-10T11:45:05.204Z,98387.78
2019-04-10T11:46:13.602Z,98392.84
2019-04-10T11:47:23.629Z,98385.55
2019-04-10T11:48:32.303Z,98385.20
2019-04-10T11:49:44.334Z,98391.52
2019-04-10T11:50:51.045Z,98390.03
2019-04-10T11:52:01.428Z,98388.22
2019-04-10T11:53:10.416Z,98388.36
2019-04-10T11:54:23.504Z,98386.69
2019-04-10T11:55:29.776Z,98399.16
2019-04-10T11:56:38.512Z,98393.59
2019-04-10T11:57:49.085Z,98401.23
2019-04-10T11:58:57.062Z,98389.75
2019-04-10T12:00:14.926Z,98381.91
2019-04-10T12:01:21.586Z,98378.27
2019-04-10T12:02:32.210Z,98387.09
2019-04-10T12:03:43.398Z,98387.72
2019-04-10T12:04:53.763Z,98389.55
2019-04-10T12:05:59.576Z,98388.56
2019-04-10T12:07:09.756Z,98388.91
2019-04-10T12:08:40.266Z,98385.55
2019-04-10T12:11:46.881Z,98381.62
2019-04-10T12:12:55.220Z,98386.05
2019-04-10T12:14:03.308Z,98388.06
2019-04-10T12:15:12.319Z,98386.09
2019-04-10T12:16:20.970Z,98381.21
2019-04-10T12:17:29.767Z,98383.88
2019-04-10T12:18:38.405Z,98390.03
2019-04-10T12:19:46.725Z,98387.03
2019-04-10T12:20:55.570Z,98389.69
2019-04-10T12:22:03.973Z,98392.50
2019-04-10T12:23:12.621Z,98390.78
2019-04-10T12:24:21.723Z,98386.94
2019-04-10T12:25:29.903Z,98391.28
2019-04-10T12:26:38.161Z,98390.94
2019-04-10T12:27:47.402Z,98393.11
2019-04-10T12:28:55.630Z,98394.29
2019-04-10T12:30:04.819Z,98385.70
2019-04-10T12:31:12.960Z,98391.63
2019-04-10T12:32:20.989Z,98392.96
2019-04-10T12:33:29.671Z,98389.41
2019-04-10T12:34:38.024Z,98378.06
2019-04-10T12:35:46.241Z,98376.99
2019-04-10T12:36:55.145Z,98383.98
2019-04-10T12:38:07.142Z,98388.71
2019-04-10T12:39:14.102Z,98384.08
2019-04-10T12:40:22.239Z,98380.28
2019-04-10T12:41:31.115Z,98391.28
2019-04-10T12:42:40.668Z,98383.79
2019-04-10T12:43:49.323Z,98390.24
2019-04-10T12:44:57.813Z,98392.91
2019-04-10T12:46:06.206Z,98390.88
2019-04-10T12:47:15.440Z,98370.91
2019-04-10T12:48:23.675Z,98372.59
2019-04-10T12:49:31.825Z,98391.43
2019-04-10T12:50:41.196Z,98382.31
2019-04-10T12:51:50.036Z,98383.53
2019-04-10T12:52:58.857Z,98379.73
2019-04-10T12:54:07.928Z,98386.24
2019-04-10T12:55:16.709Z,98386.48
2019-04-10T12:56:24.713Z,98380.66
2019-04-10T12:57:32.937Z,98375.25
2019-04-10T12:58:42.422Z,98380.57
2019-04-10T12:59:50.684Z,98380.57
2019-04-10T13:00:58.863Z,98376.58
2019-04-10T13:02:07.003Z,98379.05
2019-04-10T13:03:16.734Z,98383.73
2019-04-10T13:04:24.978Z,98379.73
2019-04-10T13:05:34.160Z,98378.75
2019-04-10T13:06:42.676Z,98375.05
2019-04-10T13:07:51.841Z,98376.73
2019-04-10T13:09:07.331Z,98368.05
2019-04-10T13:10:10.694Z,98367.33
2019-04-10T13:11:18.995Z,98370.97
2019-04-10T13:12:27.161Z,98375.25
2019-04-10T13:13:35.828Z,98364.26
2019-04-10T13:14:44.303Z,98367.19
2019-04-10T13:15:52.369Z,98369.50
2019-04-10T13:17:00.698Z,98363.69
2019-04-10T13:18:09.105Z,98363.19
2019-04-10T13:19:17.172Z,98361.22
2019-04-10T13:20:26.034Z,98369.94
2019-04-10T13:21:34.686Z,98361.95
2019-04-10T13:22:44.314Z,98363.28
2019-04-10T13:23:53.035Z,98364.61
2019-04-10T13:25:01.805Z,98372.59
2019-04-10T13:26:10.897Z,98367.96
2019-04-10T13:27:19.072Z,98377.97
2019-04-10T13:28:27.614Z,98373.98
2019-04-10T13:29:36.409Z,98368.80
2019-04-10T13:30:51.581Z,98375.20
2019-04-10T13:31:55.780Z,98373.86